sensor_id;sensor_type;location;lat;lon;timestamp;P1;durP1;ratioP1;P2;durP2;ratioP2
2624;SDS011;1322;53.256;10.386;2022-10-31T14:45:48;9.37;;;5.67;;
2624;SDS011;1322;53.256;10.386;2022-10-31T14:48:33;13.60;;;6.30;;
2624;SDS011;1322;53.256;10.386;2022-10-31T14:51:35;9.37;;;5.97;;
2624;SDS011;1322;53.256;10.386;2022-10-31T14:54:06;11.67;;;7.20;;
2624;SDS011;1322;53.256;10.386;2022-10-31T14:56:40;12.27;;;7.67;;
2624;SDS011;1322;53.256;10.386;2022-10-31T14:59:14;13.33;;;8.60;;
2624;SDS011;1322;53.256;10.386;2022-10-31T15:01:52;11.00;;;8.10;;
2624;SDS011;1322;53.256;10.386;2022-10-31T15:04:34;13.93;;;8.60;;
2624;SDS011;1322;53.256;10.386;2022-10-31T15:07:11;12.77;;;9.13;;
2624;SDS011;1322;53.256;10.386;2022-10-31T15:09:41;14.23;;;9.07;;
2624;SDS011;1322;53.256;10.386;2022-10-31T15:12:21;11.80;;;7.37;;
2624;SDS011;1322;53.256;10.386;2022-10-31T15:14:54;11.57;;;7.67;;
2624;SDS011;1322;53.256;10.386;2022-10-31T15:17:21;16.37;;;8.83;;
2624;SDS011;1322;53.256;10.386;2022-10-31T15:19:49;10.80;;;7.90;;
2624;SDS011;1322;53.256;10.386;2022-10-31T15:22:16;10.73;;;7.60;;
2624;SDS011;1322;53.256;10.386;2022-10-31T15:24:43;11.57;;;9.80;;
2624;SDS011;1322;53.256;10.386;2022-10-31T15:27:13;12.43;;;7.60;;
2624;SDS011;1322;53.256;10.386;2022-10-31T15:32:43;11.13;;;9.03;;
2624;SDS011;1322;53.256;10.386;2022-10-31T15:35:09;11.10;;;8.87;;
2624;SDS011;1322;53.256;10.386;2022-10-31T15:37:35;10.70;;;7.63;;
2624;SDS011;1322;53.256;10.386;2022-10-31T15:40:11;12.40;;;7.90;;
2624;SDS011;1322;53.256;10.386;2022-10-31T15:42:40;11.50;;;8.27;;
2624;SDS011;1322;53.256;10.386;2022-10-31T15:47:36;16.00;;;10.20;;
2624;SDS011;1322;53.256;10.386;2022-10-31T15:50:03;17.23;;;10.17;;
2624;SDS011;1322;53.256;10.386;2022-10-31T15:52:41;17.30;;;10.27;;
2624;SDS011;1322;53.256;10.386;2022-10-31T15:57:42;17.30;;;12.03;;
2624;SDS011;1322;53.256;10.386;2022-10-31T16:02:49;22.53;;;12.87;;
2624;SDS011;1322;53.256;10.386;2022-10-31T16:05:32;20.03;;;16.53;;
2624;SDS011;1322;53.256;10.386;2022-10-31T16:10:54;22.97;;;17.17;;
2624;SDS011;1322;53.256;10.386;2022-10-31T16:13:26;20.40;;;16.37;;
2624;SDS011;1322;53.256;10.386;2022-10-31T16:16:15;21.20;;;17.27;;
2624;SDS011;1322;53.256;10.386;2022-10-31T16:18:40;27.90;;;17.37;;
2624;SDS011;1322;53.256;10.386;2022-10-31T16:21:06;19.60;;;15.43;;
2624;SDS011;1322;53.256;10.386;2022-10-31T16:23:33;24.43;;;17.17;;
2624;SDS011;1322;53.256;10.386;2022-10-31T16:25:59;22.30;;;16.03;;
2624;SDS011;1322;53.256;10.386;2022-10-31T16:28:36;18.37;;;14.83;;
2624;SDS011;1322;53.256;10.386;2022-10-31T16:31:12;20.07;;;14.70;;
2624;SDS011;1322;53.256;10.386;2022-10-31T16:33:39;21.80;;;15.40;;
2624;SDS011;1322;53.256;10.386;2022-10-31T16:38:55;19.57;;;14.70;;
2624;SDS011;1322;53.256;10.386;2022-10-31T16:41:21;24.50;;;14.30;;
2624;SDS011;1322;53.256;10.386;2022-10-31T16:43:48;22.70;;;15.67;;
2624;SDS011;1322;53.256;10.386;2022-10-31T16:46:15;23.50;;;15.40;;
2624;SDS011;1322;53.256;10.386;2022-10-31T16:48:46;21.23;;;13.40;;
2624;SDS011;1322;53.256;10.386;2022-10-31T16:51:12;22.90;;;13.07;;
2624;SDS011;1322;53.256;10.386;2022-10-31T16:53:37;17.73;;;14.47;;
2624;SDS011;1322;53.256;10.386;2022-10-31T16:56:03;18.20;;;13.93;;
2624;SDS011;1322;53.256;10.386;2022-10-31T16:58:30;23.17;;;15.50;;
2624;SDS011;1322;53.256;10.386;2022-10-31T17:00:58;20.00;;;15.23;;
2624;SDS011;1322;53.256;10.386;2022-10-31T17:03:25;19.60;;;14.73;;
2624;SDS011;1322;53.256;10.386;2022-10-31T17:05:51;19.50;;;15.03;;
2624;SDS011;1322;53.256;10.386;2022-10-31T17:08:16;25.90;;;14.30;;
2624;SDS011;1322;53.256;10.386;2022-10-31T17:10:42;21.20;;;14.60;;
2624;SDS011;1322;53.256;10.386;2022-10-31T17:13:12;22.60;;;14.20;;
2624;SDS011;1322;53.256;10.386;2022-10-31T17:15:42;24.07;;;14.93;;
2624;SDS011;1322;53.256;10.386;2022-10-31T17:18:14;21.70;;;15.37;;
2624;SDS011;1322;53.256;10.386;2022-10-31T17:20:41;25.10;;;17.30;;
2624;SDS011;1322;53.256;10.386;2022-10-31T17:23:11;27.03;;;16.30;;
2624;SDS011;1322;53.256;10.386;2022-10-31T17:25:38;28.07;;;17.43;;
2624;SDS011;1322;53.256;10.386;2022-10-31T17:28:05;28.23;;;16.93;;
2624;SDS011;1322;53.256;10.386;2022-10-31T17:30:31;32.43;;;19.23;;
2624;SDS011;1322;53.256;10.386;2022-10-31T17:32:58;30.40;;;17.37;;
2624;SDS011;1322;53.256;10.386;2022-10-31T17:35:24;32.70;;;20.10;;
2624;SDS011;1322;53.256;10.386;2022-10-31T17:37:50;32.87;;;19.40;;
2624;SDS011;1322;53.256;10.386;2022-10-31T17:40:17;28.90;;;20.80;;
2624;SDS011;1322;53.256;10.386;2022-10-31T17:42:48;31.50;;;19.57;;
2624;SDS011;1322;53.256;10.386;2022-10-31T17:45:17;33.47;;;21.07;;
2624;SDS011;1322;53.256;10.386;2022-10-31T17:47:45;28.00;;;20.23;;
2624;SDS011;1322;53.256;10.386;2022-10-31T17:50:12;31.93;;;19.10;;
2624;SDS011;1322;53.256;10.386;2022-10-31T17:52:38;22.77;;;18.10;;
2624;SDS011;1322;53.256;10.386;2022-10-31T17:55:04;35.70;;;20.40;;
2624;SDS011;1322;53.256;10.386;2022-10-31T17:57:33;25.60;;;18.30;;
2624;SDS011;1322;53.256;10.386;2022-10-31T18:00:00;34.60;;;19.70;;
2624;SDS011;1322;53.256;10.386;2022-10-31T18:02:27;27.53;;;18.57;;
2624;SDS011;1322;53.256;10.386;2022-10-31T18:04:53;30.90;;;19.43;;
2624;SDS011;1322;53.256;10.386;2022-10-31T18:07:19;25.23;;;17.23;;
2624;SDS011;1322;53.256;10.386;2022-10-31T18:09:45;28.10;;;16.90;;
2624;SDS011;1322;53.256;10.386;2022-10-31T18:12:11;30.40;;;17.60;;
2624;SDS011;1322;53.256;10.386;2022-10-31T18:14:37;27.43;;;17.40;;
2624;SDS011;1322;53.256;10.386;2022-10-31T18:17:03;26.20;;;16.43;;
2624;SDS011;1322;53.256;10.386;2022-10-31T18:19:31;25.47;;;16.63;;
2624;SDS011;1322;53.256;10.386;2022-10-31T18:21:56;29.73;;;17.73;;
2624;SDS011;1322;53.256;10.386;2022-10-31T18:24:22;28.37;;;17.13;;
2624;SDS011;1322;53.256;10.386;2022-10-31T18:26:47;35.03;;;18.97;;
2624;SDS011;1322;53.256;10.386;2022-10-31T18:29:14;32.27;;;19.07;;
2624;SDS011;1322;53.256;10.386;2022-10-31T18:31:40;33.57;;;19.83;;
2624;SDS011;1322;53.256;10.386;2022-10-31T18:34:06;32.37;;;18.17;;
2624;SDS011;1322;53.256;10.386;2022-10-31T18:36:31;33.27;;;19.93;;
2624;SDS011;1322;53.256;10.386;2022-10-31T18:38:57;33.03;;;19.57;;
2624;SDS011;1322;53.256;10.386;2022-10-31T18:41:23;32.43;;;16.87;;
2624;SDS011;1322;53.256;10.386;2022-10-31T18:43:48;31.77;;;18.20;;
2624;SDS011;1322;53.256;10.386;2022-10-31T18:46:14;34.23;;;19.60;;
2624;SDS011;1322;53.256;10.386;2022-10-31T18:48:42;30.33;;;18.17;;
2624;SDS011;1322;53.256;10.386;2022-10-31T18:51:09;27.37;;;19.00;;
2624;SDS011;1322;53.256;10.386;2022-10-31T18:53:37;31.47;;;17.20;;
2624;SDS011;1322;53.256;10.386;2022-10-31T18:56:06;26.90;;;16.27;;
2624;SDS011;1322;53.256;10.386;2022-10-31T18:58:33;28.30;;;16.70;;
2624;SDS011;1322;53.256;10.386;2022-10-31T19:00:59;27.37;;;18.00;;
2624;SDS011;1322;53.256;10.386;2022-10-31T19:03:29;24.60;;;15.43;;
2624;SDS011;1322;53.256;10.386;2022-10-31T19:05:54;25.63;;;16.57;;
2624;SDS011;1322;53.256;10.386;2022-10-31T19:08:20;25.00;;;16.10;;
2624;SDS011;1322;53.256;10.386;2022-10-31T19:10:46;19.47;;;13.70;;
2624;SDS011;1322;53.256;10.386;2022-10-31T19:13:12;32.93;;;15.40;;
2624;SDS011;1322;53.256;10.386;2022-10-31T19:15:37;24.70;;;16.27;;
2624;SDS011;1322;53.256;10.386;2022-10-31T19:18:03;26.50;;;15.63;;
2624;SDS011;1322;53.256;10.386;2022-10-31T19:20:29;25.83;;;17.13;;
2624;SDS011;1322;53.256;10.386;2022-10-31T19:22:55;29.23;;;17.97;;
2624;SDS011;1322;53.256;10.386;2022-10-31T19:25:20;26.37;;;17.63;;
2624;SDS011;1322;53.256;10.386;2022-10-31T19:27:46;25.93;;;17.50;;
2624;SDS011;1322;53.256;10.386;2022-10-31T19:30:12;27.90;;;16.90;;
2624;SDS011;1322;53.256;10.386;2022-10-31T19:32:38;28.73;;;16.97;;
2624;SDS011;1322;53.256;10.386;2022-10-31T19:35:04;31.27;;;16.70;;
2624;SDS011;1322;53.256;10.386;2022-10-31T19:37:33;26.67;;;17.40;;
2624;SDS011;1322;53.256;10.386;2022-10-31T19:39:59;25.57;;;15.37;;
2624;SDS011;1322;53.256;10.386;2022-10-31T19:42:25;30.73;;;15.00;;
2624;SDS011;1322;53.256;10.386;2022-10-31T19:44:52;24.00;;;16.07;;
2624;SDS011;1322;53.256;10.386;2022-10-31T19:47:18;26.07;;;16.43;;
2624;SDS011;1322;53.256;10.386;2022-10-31T19:49:43;24.57;;;14.27;;
2624;SDS011;1322;53.256;10.386;2022-10-31T19:52:09;24.10;;;17.27;;
2624;SDS011;1322;53.256;10.386;2022-10-31T19:54:35;24.63;;;16.23;;
2624;SDS011;1322;53.256;10.386;2022-10-31T19:57:00;24.33;;;15.40;;
2624;SDS011;1322;53.256;10.386;2022-10-31T19:59:26;24.37;;;15.13;;
2624;SDS011;1322;53.256;10.386;2022-10-31T20:01:51;25.37;;;14.90;;
2624;SDS011;1322;53.256;10.386;2022-10-31T20:04:17;25.30;;;15.30;;
2624;SDS011;1322;53.256;10.386;2022-10-31T20:06:42;26.90;;;15.70;;
2624;SDS011;1322;53.256;10.386;2022-10-31T20:09:09;24.67;;;15.27;;
2624;SDS011;1322;53.256;10.386;2022-10-31T20:11:40;21.77;;;14.80;;
2624;SDS011;1322;53.256;10.386;2022-10-31T20:14:07;21.87;;;13.20;;
2624;SDS011;1322;53.256;10.386;2022-10-31T20:16:35;18.80;;;13.50;;
2624;SDS011;1322;53.256;10.386;2022-10-31T20:19:00;27.60;;;13.63;;
2624;SDS011;1322;53.256;10.386;2022-10-31T20:21:27;24.40;;;14.07;;
2624;SDS011;1322;53.256;10.386;2022-10-31T20:23:57;24.47;;;14.43;;
2624;SDS011;1322;53.256;10.386;2022-10-31T20:26:26;18.67;;;14.23;;
2624;SDS011;1322;53.256;10.386;2022-10-31T20:28:54;20.77;;;13.00;;
2624;SDS011;1322;53.256;10.386;2022-10-31T20:31:21;26.10;;;14.40;;
2624;SDS011;1322;53.256;10.386;2022-10-31T20:33:49;28.50;;;14.90;;
2624;SDS011;1322;53.256;10.386;2022-10-31T20:36:15;23.37;;;14.30;;
2624;SDS011;1322;53.256;10.386;2022-10-31T20:38:45;22.10;;;14.33;;
2624;SDS011;1322;53.256;10.386;2022-10-31T20:41:11;23.77;;;14.90;;
2624;SDS011;1322;53.256;10.386;2022-10-31T20:43:38;24.43;;;15.00;;
2624;SDS011;1322;53.256;10.386;2022-10-31T20:46:05;25.87;;;16.53;;
2624;SDS011;1322;53.256;10.386;2022-10-31T20:48:42;24.83;;;16.43;;
2624;SDS011;1322;53.256;10.386;2022-10-31T20:51:10;20.17;;;13.47;;
2624;SDS011;1322;53.256;10.386;2022-10-31T20:53:39;29.63;;;16.17;;
2624;SDS011;1322;53.256;10.386;2022-10-31T20:56:12;26.73;;;15.50;;
2624;SDS011;1322;53.256;10.386;2022-10-31T20:58:42;23.53;;;15.03;;
2624;SDS011;1322;53.256;10.386;2022-10-31T21:03:42;23.80;;;16.10;;
2624;SDS011;1322;53.256;10.386;2022-10-31T21:06:08;22.77;;;14.43;;
2624;SDS011;1322;53.256;10.386;2022-10-31T21:08:35;24.93;;;15.90;;
2624;SDS011;1322;53.256;10.386;2022-10-31T21:11:04;25.90;;;15.00;;
2624;SDS011;1322;53.256;10.386;2022-10-31T21:13:36;24.93;;;14.57;;
2624;SDS011;1322;53.256;10.386;2022-10-31T21:16:05;28.77;;;16.63;;
2624;SDS011;1322;53.256;10.386;2022-10-31T21:18:36;25.87;;;15.30;;
2624;SDS011;1322;53.256;10.386;2022-10-31T21:21:07;28.67;;;17.03;;
2624;SDS011;1322;53.256;10.386;2022-10-31T21:23:53;25.70;;;15.90;;
2624;SDS011;1322;53.256;10.386;2022-10-31T21:26:20;27.83;;;15.80;;
2624;SDS011;1322;53.256;10.386;2022-10-31T21:28:48;28.10;;;16.30;;
2624;SDS011;1322;53.256;10.386;2022-10-31T21:31:16;26.73;;;16.87;;
2624;SDS011;1322;53.256;10.386;2022-10-31T21:33:43;29.17;;;16.30;;
2624;SDS011;1322;53.256;10.386;2022-10-31T21:36:09;29.70;;;15.20;;
2624;SDS011;1322;53.256;10.386;2022-10-31T21:38:35;29.17;;;17.77;;
2624;SDS011;1322;53.256;10.386;2022-10-31T21:41:02;30.20;;;17.40;;
2624;SDS011;1322;53.256;10.386;2022-10-31T21:43:33;32.63;;;17.60;;
2624;SDS011;1322;53.256;10.386;2022-10-31T21:46:01;33.33;;;18.67;;
2624;SDS011;1322;53.256;10.386;2022-10-31T21:48:31;26.00;;;18.70;;
2624;SDS011;1322;53.256;10.386;2022-10-31T21:51:00;24.13;;;15.20;;
2624;SDS011;1322;53.256;10.386;2022-10-31T21:53:27;28.60;;;18.23;;
2624;SDS011;1322;53.256;10.386;2022-10-31T21:56:12;30.40;;;19.00;;
2624;SDS011;1322;53.256;10.386;2022-10-31T21:58:37;24.80;;;16.13;;
2624;SDS011;1322;53.256;10.386;2022-10-31T22:01:03;31.93;;;20.00;;
2624;SDS011;1322;53.256;10.386;2022-10-31T22:03:28;28.67;;;19.00;;
2624;SDS011;1322;53.256;10.386;2022-10-31T22:05:54;36.13;;;18.73;;
2624;SDS011;1322;53.256;10.386;2022-10-31T22:08:20;29.63;;;18.23;;
2624;SDS011;1322;53.256;10.386;2022-10-31T22:10:45;33.37;;;18.43;;
2624;SDS011;1322;53.256;10.386;2022-10-31T22:13:11;34.00;;;19.90;;
2624;SDS011;1322;53.256;10.386;2022-10-31T22:15:36;27.13;;;18.30;;
2624;SDS011;1322;53.256;10.386;2022-10-31T22:18:02;38.27;;;21.00;;
2624;SDS011;1322;53.256;10.386;2022-10-31T22:20:28;34.97;;;18.47;;
2624;SDS011;1322;53.256;10.386;2022-10-31T22:22:53;32.37;;;19.33;;
2624;SDS011;1322;53.256;10.386;2022-10-31T22:25:19;34.57;;;20.23;;
2624;SDS011;1322;53.256;10.386;2022-10-31T22:27:44;30.43;;;20.20;;
2624;SDS011;1322;53.256;10.386;2022-10-31T22:30:10;37.83;;;22.13;;
2624;SDS011;1322;53.256;10.386;2022-10-31T22:32:36;31.67;;;20.57;;
2624;SDS011;1322;53.256;10.386;2022-10-31T22:35:01;30.87;;;19.60;;
2624;SDS011;1322;53.256;10.386;2022-10-31T22:37:27;37.37;;;21.10;;
2624;SDS011;1322;53.256;10.386;2022-10-31T22:39:52;38.57;;;21.80;;
2624;SDS011;1322;53.256;10.386;2022-10-31T22:42:18;36.73;;;21.43;;
2624;SDS011;1322;53.256;10.386;2022-10-31T22:44:43;32.90;;;20.50;;
2624;SDS011;1322;53.256;10.386;2022-10-31T22:47:09;29.97;;;20.00;;
2624;SDS011;1322;53.256;10.386;2022-10-31T22:49:34;33.40;;;20.90;;
2624;SDS011;1322;53.256;10.386;2022-10-31T22:52:00;34.87;;;21.07;;
2624;SDS011;1322;53.256;10.386;2022-10-31T22:54:27;33.67;;;21.03;;
2624;SDS011;1322;53.256;10.386;2022-10-31T22:56:53;30.27;;;20.60;;
2624;SDS011;1322;53.256;10.386;2022-10-31T22:59:19;35.33;;;20.33;;
2624;SDS011;1322;53.256;10.386;2022-10-31T23:01:44;28.60;;;19.20;;
2624;SDS011;1322;53.256;10.386;2022-10-31T23:04:12;28.20;;;20.53;;
2624;SDS011;1322;53.256;10.386;2022-10-31T23:06:38;31.53;;;19.17;;
2624;SDS011;1322;53.256;10.386;2022-10-31T23:09:05;31.97;;;19.20;;
2624;SDS011;1322;53.256;10.386;2022-10-31T23:11:32;33.23;;;19.80;;
2624;SDS011;1322;53.256;10.386;2022-10-31T23:14:00;28.70;;;18.00;;
2624;SDS011;1322;53.256;10.386;2022-10-31T23:19:14;30.27;;;19.50;;
2624;SDS011;1322;53.256;10.386;2022-10-31T23:21:43;28.87;;;20.60;;
2624;SDS011;1322;53.256;10.386;2022-10-31T23:24:32;30.53;;;20.20;;
2624;SDS011;1322;53.256;10.386;2022-10-31T23:27:03;32.10;;;19.50;;
2624;SDS011;1322;53.256;10.386;2022-10-31T23:32:31;30.00;;;20.57;;
2624;SDS011;1322;53.256;10.386;2022-10-31T23:35:02;30.97;;;20.17;;
2624;SDS011;1322;53.256;10.386;2022-10-31T23:37:31;30.30;;;18.77;;
2624;SDS011;1322;53.256;10.386;2022-10-31T23:39:58;28.77;;;18.43;;
2624;SDS011;1322;53.256;10.386;2022-10-31T23:42:24;33.90;;;21.00;;
2624;SDS011;1322;53.256;10.386;2022-10-31T23:44:50;26.60;;;19.40;;
2624;SDS011;1322;53.256;10.386;2022-10-31T23:47:16;27.77;;;19.73;;
2624;SDS011;1322;53.256;10.386;2022-10-31T23:49:42;29.63;;;19.40;;
2624;SDS011;1322;53.256;10.386;2022-10-31T23:52:08;32.10;;;19.60;;
2624;SDS011;1322;53.256;10.386;2022-10-31T23:54:33;31.17;;;20.93;;
2624;SDS011;1322;53.256;10.386;2022-10-31T23:56:59;28.10;;;21.87;;
2624;SDS011;1322;53.256;10.386;2022-10-31T23:59:25;31.53;;;20.20;;
